Time;durP1;ratioP1;P1;durP2;ratioP2;P2;SDS_P1;SDS_P2;PMS_P1;PMS_P2;Temp;Humidity;BMP_temperature;BMP_pressure;BME280_temperature;BME280_humidity;BME280_pressure;Samples;Min_cycle;Max_cycle;Signal;HPM_P1;HPM_P2
2022/10/20 00:00:39;;;;;;;;;17.00;16.75;;;;;18.59;74.36;100583.09;4977217;28;45340;-65
2022/10/20 00:03:04;;;;;;;;;18.00;15.80;;;;;18.51;74.77;100585.28;4975824;28;45402;-61
2022/10/20 00:05:30;;;;;;;;;16.25;16.00;;;;;17.75;74.66;100460.38;4975977;28;45403;-61
2022/10/20 00:07:55;;;;;;;;;16.25;14.75;;;;;18.54;74.87;100593.09;4977190;28;45375;-61
2022/10/20 00:10:21;;;;;;;;;17.50;17.50;;;;;18.51;74.59;100588.06;4975916;28;45649;-61
2022/10/20 00:12:46;;;;;;;;;14.00;14.00;;;;;18.54;74.61;100590.31;4970098;28;45465;-62
2022/10/20 00:15:12;;;;;;;;;18.75;17.25;;;;;18.53;74.67;100590.56;4957154;28;45442;-62
2022/10/20 00:17:37;;;;;;;;;18.25;17.25;;;;;18.53;74.79;100585.84;4957684;28;45387;-63
2022/10/20 00:20:03;;;;;;;;;13.00;12.75;;;;;18.49;74.64;100575.53;4957402;28;45388;-62
2022/10/20 00:22:31;;;;;;;;;16.20;14.80;;;;;18.46;75.04;100578.88;4956135;28;45537;-62
2022/10/20 00:24:56;;;;;;;;;17.00;14.20;;;;;18.44;74.95;100579.13;4972543;28;45328;-61
2022/10/20 00:27:22;;;;;;;;;14.75;13.75;;;;;18.43;75.27;100572.72;4956576;28;45548;-69
2022/10/20 00:29:48;;;;;;;;;19.25;16.00;;;;;18.47;75.12;100573.03;4957074;28;46336;-62
2022/10/20 00:32:14;;;;;;;;;15.00;15.00;;;;;18.47;74.90;100566.66;4939627;28;45444;-62
2022/10/20 00:34:39;;;;;;;;;14.00;14.00;;;;;18.50;75.13;100568.88;4957235;28;45279;-62
2022/10/20 00:37:05;;;;;;;;;13.25;13.25;;;;;18.49;74.99;100569.97;4988587;28;45250;-62
2022/10/20 00:39:30;;;;;;;;;14.00;14.00;;;;;18.52;74.79;100569.47;4955497;28;46991;-62
2022/10/20 00:41:56;;;;;;;;;16.50;14.50;;;;;18.52;74.88;100561.13;4957116;28;45410;-62
2022/10/20 00:44:50;;;;;;;;;12.25;12.25;;;;;18.54;74.83;100562.53;4957388;28;45268;-62
2022/10/20 00:47:23;;;;;;;;;17.00;14.20;;;;;18.55;74.57;100569.75;4957175;28;45352;-62
2022/10/20 00:49:48;;;;;;;;;15.60;15.60;;;;;18.56;74.66;100563.09;4957199;28;46295;-62
2022/10/20 00:52:17;;;;;;;;;14.50;14.00;;;;;18.55;74.85;100555.84;4956629;28;45492;-62
2022/10/20 00:54:42;;;;;;;;;16.80;15.60;;;;;18.37;74.76;100514.63;4955461;28;45502;-62
2022/10/20 00:57:08;;;;;;;;;14.00;14.00;;;;;18.55;74.75;100552.22;4957168;28;45412;-62
2022/10/20 00:59:34;;;;;;;;;20.25;16.50;;;;;18.55;74.79;100564.19;4956677;28;46298;-62
2022/10/20 01:02:00;;;;;;;;;20.00;15.40;;;;;18.28;74.64;100506.81;4956752;28;45364;-62
2022/10/20 01:04:27;;;;;;;;;15.80;15.40;;;;;18.51;74.62;100538.03;4948053;28;45464;-62
2022/10/20 01:06:52;;;;;;;;;14.00;14.00;;;;;18.55;74.57;100532.78;4954623;28;45261;-62
2022/10/20 01:09:18;;;;;;;;;15.75;14.75;;;;;18.54;74.47;100545.84;4970963;28;45281;-62
2022/10/20 01:11:53;;;;;;;;;17.75;14.00;;;;;18.30;74.88;100512.09;4951880;28;45347;-62
2022/10/20 01:14:31;;;;;;;;;15.40;13.80;;;;;18.36;74.84;100527.69;4982122;28;45438;-63
2022/10/20 01:17:15;;;;;;;;;13.80;12.80;;;;;18.53;74.84;100557.22;4975560;28;45557;-63
2022/10/20 01:20:26;;;;;;;;;14.20;13.20;;;;;18.43;74.91;100555.22;4956859;28;48839;-62
2022/10/20 01:23:16;;;;;;;;;16.20;15.80;;;;;18.49;74.54;100559.72;4975032;28;45359;-62
2022/10/20 01:26:03;;;;;;;;;15.20;12.60;;;;;18.50;74.91;100560.53;4976045;28;45421;-62
2022/10/20 01:28:44;;;;;;;;;14.60;14.60;;;;;18.48;74.76;100563.59;4976557;28;45400;-62
2022/10/20 01:31:49;;;;;;;;;15.60;13.20;;;;;18.47;74.63;100578.56;4958568;28;46595;-62
2022/10/20 01:34:38;;;;;;;;;12.00;12.00;;;;;18.39;74.71;100576.31;4942145;28;45368;-62
2022/10/20 01:37:24;;;;;;;;;16.40;15.20;;;;;18.32;75.13;100562.69;4974603;28;45441;-62
2022/10/20 01:39:55;;;;;;;;;16.00;13.40;;;;;18.22;75.11;100557.91;4976318;28;45425;-62
2022/10/20 01:42:22;;;;;;;;;17.80;14.20;;;;;18.22;75.34;100571.78;4974522;28;46502;-62
2022/10/20 01:44:47;;;;;;;;;15.80;12.60;;;;;18.21;75.38;100591.47;4958272;28;45500;-62
2022/10/20 01:47:13;;;;;;;;;16.00;16.00;;;;;18.16;75.60;100614.50;4974757;28;45327;-62
2022/10/20 01:49:42;;;;;;;;;13.25;12.25;;;;;18.11;75.79;100600.56;4976024;28;45792;-62
2022/10/20 01:52:09;;;;;;;;;14.80;14.80;;;;;18.07;75.78;100596.66;4973992;28;47789;-62
2022/10/20 01:54:35;;;;;;;;;16.20;15.00;;;;;18.07;75.87;100610.53;4974349;28;45363;-63
2022/10/20 01:57:23;;;;;;;;;18.00;15.00;;;;;18.07;76.39;100619.72;4975883;28;45330;-61
2022/10/20 02:00:07;;;;;;;;;16.60;13.60;;;;;17.87;76.37;100582.31;4975970;28;45343;-61
2022/10/20 02:02:54;;;;;;;;;17.00;15.80;;;;;18.09;76.04;100603.63;4975673;28;46577;-62
2022/10/20 02:05:38;;;;;;;;;7.00;7.00;;;;;17.70;76.49;100510.31;4941229;28;45408;-61
2022/10/20 02:08:11;;;;;;;;;13.00;13.00;;;;;18.11;76.16;100553.38;4975123;28;45612;-61
2022/10/20 02:10:44;;;;;;;;;18.00;13.20;;;;;18.11;76.47;100545.88;4974391;28;45337;-61
2022/10/20 02:13:10;;;;;;;;;14.00;12.80;;;;;18.14;76.44;100537.00;4974034;28;46294;-61
2022/10/20 02:15:36;;;;;;;;;12.25;11.50;;;;;18.16;76.72;100542.31;4974090;28;45353;-61
2022/10/20 02:18:03;;;;;;;;;15.20;14.40;;;;;18.17;76.61;100530.09;4957758;28;45412;-61
2022/10/20 02:20:29;;;;;;;;;12.00;10.20;;;;;18.16;76.64;100500.63;4941846;28;45498;-61
2022/10/20 02:22:55;;;;;;;;;10.25;10.25;;;;;18.23;77.02;100492.91;4957292;28;47378;-61
2022/10/20 02:25:20;;;;;;;;;12.00;11.60;;;;;18.26;77.17;100488.75;4974114;28;45532;-61
2022/10/20 02:27:46;;;;;;;;;9.75;9.75;;;;;18.10;77.54;100469.22;4957623;28;45519;-61
2022/10/20 02:30:14;;;;;;;;;10.25;8.50;;;;;18.26;77.54;100492.34;4957786;28;45432;-61
2022/10/20 02:32:40;;;;;;;;;10.20;9.20;;;;;18.24;77.18;100458.47;4974109;28;45333;-61
2022/10/20 02:35:08;;;;;;;;;11.00;8.25;;;;;18.34;76.91;100466.00;4973713;28;45339;-61
2022/10/20 02:37:33;;;;;;;;;10.00;8.40;;;;;18.40;76.93;100439.91;4976849;28;45295;-61
2022/10/20 02:39:59;;;;;;;;;8.50;7.25;;;;;18.44;76.40;100417.97;4979016;28;45359;-61
2022/10/20 02:42:24;;;;;;;;;8.50;6.25;;;;;18.41;76.23;100407.44;4976635;28;45473;-61
2022/10/20 02:44:50;;;;;;;;;10.00;8.50;;;;;18.41;75.95;100402.69;4979028;28;45383;-61
2022/10/20 02:47:15;;;;;;;;;8.00;6.75;;;;;18.43;75.95;100410.75;4978737;28;45453;-61
2022/10/20 02:49:41;;;;;;;;;7.50;7.25;;;;;18.48;75.57;100412.72;4977695;28;45501;-61
2022/10/20 02:52:06;;;;;;;;;7.50;5.50;;;;;18.57;75.33;100427.72;4978358;28;45912;-61
2022/10/20 02:54:32;;;;;;;;;7.50;7.50;;;;;18.39;74.81;100401.28;4978479;28;45854;-61
2022/10/20 02:56:58;;;;;;;;;6.75;6.75;;;;;18.63;74.48;100442.50;4977634;28;45393;-61
2022/10/20 02:59:24;;;;;;;;;12.00;8.00;;;;;18.40;74.51;100406.56;5010124;28;45341;-61
2022/10/20 03:01:51;;;;;;;;;6.25;5.25;;;;;18.65;74.71;100455.00;4977344;28;46311;-61
2022/10/20 03:04:16;;;;;;;;;6.60;6.00;;;;;18.68;73.96;100450.84;4927747;28;46118;-62
2022/10/20 03:06:42;;;;;;;;;9.50;7.75;;;;;18.67;73.74;100455.56;4976943;28;45560;-61
2022/10/20 03:09:08;;;;;;;;;9.00;7.00;;;;;18.65;73.98;100449.44;4977120;28;45516;-61
2022/10/20 03:11:33;;;;;;;;;5.75;5.50;;;;;18.47;73.87;100411.03;4977986;28;45543;-63
2022/10/20 03:13:59;;;;;;;;;7.75;7.00;;;;;18.77;74.19;100465.03;4989962;28;45404;-62
2022/10/20 03:16:25;;;;;;;;;8.25;6.00;;;;;18.55;74.18;100421.63;4973082;28;45359;-61
2022/10/20 03:18:50;;;;;;;;;8.00;7.75;;;;;18.57;73.96;100416.63;4973610;28;45415;-61
2022/10/20 03:21:15;;;;;;;;;8.50;6.75;;;;;18.80;74.04;100442.25;4958022;28;45895;-62
2022/10/20 03:23:41;;;;;;;;;7.00;7.00;;;;;18.79;73.67;100430.28;4958424;28;45892;-61
2022/10/20 03:26:08;;;;;;;;;7.75;7.00;;;;;18.78;73.77;100431.41;4958464;28;45408;-61
2022/10/20 03:28:33;;;;;;;;;5.20;5.20;;;;;18.83;73.69;100464.78;4940994;28;45226;-61
2022/10/20 03:30:59;;;;;;;;;7.75;6.25;;;;;18.87;73.85;100470.63;4972648;28;47256;-62
2022/10/20 03:33:24;;;;;;;;;7.50;5.25;;;;;18.88;74.18;100465.91;4958234;28;45273;-62
2022/10/20 03:35:50;;;;;;;;;9.50;6.25;;;;;18.86;73.95;100470.88;4958409;28;45554;-61
2022/10/20 03:38:16;;;;;;;;;7.00;5.00;;;;;18.86;74.12;100477.28;4973781;28;45556;-61
2022/10/20 03:40:41;;;;;;;;;7.25;6.25;;;;;18.86;74.14;100473.66;4973228;28;48209;-61
2022/10/20 03:43:06;;;;;;;;;6.25;6.25;;;;;18.56;73.93;100438.03;4958297;28;45273;-61
2022/10/20 03:45:32;;;;;;;;;5.50;4.25;;;;;18.79;74.16;100487.84;4958405;28;45350;-63
2022/10/20 03:47:58;;;;;;;;;6.00;6.00;;;;;18.78;74.39;100494.53;4955621;28;45418;-62
2022/10/20 03:50:23;;;;;;;;;7.00;6.00;;;;;18.80;74.43;100500.63;4957779;28;46310;-63
2022/10/20 03:52:49;;;;;;;;;4.75;4.75;;;;;18.62;74.29;100457.50;4958125;28;45374;-63
2022/10/20 03:55:16;;;;;;;;;7.80;7.60;;;;;18.82;74.27;100496.47;4973249;28;45429;-64
2022/10/20 03:57:41;;;;;;;;;6.40;6.40;;;;;18.85;74.88;100499.81;4958412;28;45462;-65
2022/10/20 04:00:07;;;;;;;;;8.50;6.25;;;;;18.84;75.13;100515.66;4958114;28;45336;-63
2022/10/20 04:02:39;;;;;;;;;8.00;6.00;;;;;18.85;75.33;100524.81;4957724;28;45304;-63
2022/10/20 04:05:05;;;;;;;;;7.40;5.80;;;;;18.85;75.68;100514.56;4972356;28;45792;-63
2022/10/20 04:07:31;;;;;;;;;10.00;7.20;;;;;18.85;75.97;100495.09;4961585;28;45493;-63
2022/10/20 04:09:57;;;;;;;;;5.75;4.75;;;;;18.84;76.13;100499.00;4976443;28;46872;-63
2022/10/20 04:12:22;;;;;;;;;8.00;8.00;;;;;18.60;76.65;100435.53;4977192;28;45289;-63
2022/10/20 04:14:48;;;;;;;;;8.00;7.00;;;;;18.68;77.64;100453.63;4967835;28;45351;-63
2022/10/20 04:17:13;;;;;;;;;8.00;6.75;;;;;18.53;77.98;100451.63;4940613;28;45545;-64
2022/10/20 04:19:39;;;;;;;;;9.50;8.00;;;;;18.70;78.25;100462.53;4956264;28;47409;-63
2022/10/20 04:22:04;;;;;;;;;9.00;6.00;;;;;18.46;78.32;100449.09;4957375;28;45396;-63
2022/10/20 04:24:30;;;;;;;;;9.00;8.25;;;;;18.67;78.34;100474.16;4957826;28;45773;-63
2022/10/20 04:26:56;;;;;;;;;8.00;8.00;;;;;18.66;78.44;100458.59;4958025;28;45319;-63
2022/10/20 04:29:21;;;;;;;;;10.50;7.00;;;;;18.71;77.55;100455.84;4957817;28;46086;-63
2022/10/20 04:31:47;;;;;;;;;9.50;5.50;;;;;18.72;78.24;100460.28;4956058;28;45455;-63
2022/10/20 04:34:12;;;;;;;;;10.50;8.00;;;;;18.43;78.17;100433.81;4956293;28;45303;-63
2022/10/20 04:36:38;;;;;;;;;9.00;6.00;;;;;18.62;77.85;100479.75;4940676;28;45458;-63
2022/10/20 04:39:06;;;;;;;;;9.50;9.00;;;;;18.65;78.06;100493.06;4957341;28;46325;-63
2022/10/20 04:41:32;;;;;;;;;8.20;8.00;;;;;18.65;78.24;100493.91;4957572;28;45608;-64
2022/10/20 04:43:58;;;;;;;;;9.00;9.00;;;;;18.65;78.35;100480.03;4956434;28;45325;-64
2022/10/20 04:46:23;;;;;;;;;8.25;7.25;;;;;18.60;78.12;100468.88;4955940;28;45600;-64
2022/10/20 04:48:49;;;;;;;;;11.50;9.50;;;;;18.52;78.59;100464.69;4957219;28;45415;-62
2022/10/20 04:51:14;;;;;;;;;7.75;7.00;;;;;18.49;79.00;100484.69;4957012;28;45443;-62
2022/10/20 04:53:40;;;;;;;;;10.00;8.00;;;;;18.50;78.82;100468.84;4956113;28;45399;-62
2022/10/20 04:56:06;;;;;;;;;11.00;8.50;;;;;18.53;78.50;100471.09;4955810;28;45636;-62
2022/10/20 04:58:32;;;;;;;;;6.80;6.00;;;;;18.48;78.73;100446.91;4939365;28;45487;-62
2022/10/20 05:01:05;;;;;;;;;9.75;8.50;;;;;18.23;78.93;100431.78;4956722;28;45710;-63
2022/10/20 05:03:31;;;;;;;;;8.80;8.00;;;;;18.49;79.29;100475.50;4955915;28;45430;-63
2022/10/20 05:06:16;;;;;;;;;11.25;9.00;;;;;18.50;79.40;100482.72;4957352;28;45665;-62
2022/10/20 05:08:42;;;;;;;;;8.20;7.00;;;;;18.48;78.95;100474.69;4956668;28;46499;-62
2022/10/20 05:11:08;;;;;;;;;11.20;10.40;;;;;18.55;78.99;100486.38;4956657;28;45470;-62
2022/10/20 05:13:34;;;;;;;;;11.50;8.00;;;;;18.57;79.00;100502.75;4956872;28;45430;-62
2022/10/20 05:15:59;;;;;;;;;9.25;9.25;;;;;18.60;79.24;100506.94;4957773;28;45522;-62
2022/10/20 05:18:25;;;;;;;;;8.25;8.00;;;;;18.58;78.50;100504.47;4975927;28;45734;-62
2022/10/20 05:20:50;;;;;;;;;8.00;8.00;;;;;18.41;78.69;100477.69;4976273;28;45406;-62
2022/10/20 05:23:16;;;;;;;;;11.25;8.00;;;;;18.45;78.71;100496.63;4975045;28;46039;-62
2022/10/20 05:25:41;;;;;;;;;10.75;10.00;;;;;18.33;78.97;100494.91;5007648;28;45478;-63
2022/10/20 05:28:07;;;;;;;;;8.25;8.25;;;;;18.47;79.26;100508.28;4974652;28;48795;-64
2022/10/20 05:30:36;;;;;;;;;7.00;6.00;;;;;18.37;78.93;100497.97;4975818;28;45371;-63
2022/10/20 05:33:01;;;;;;;;;11.20;10.00;;;;;18.30;79.01;100487.09;4974652;28;45371;-63
2022/10/20 05:35:27;;;;;;;;;10.00;8.25;;;;;18.25;78.85;100475.97;4974874;28;45351;-64
2022/10/20 05:37:53;;;;;;;;;7.00;7.00;;;;;18.43;78.74;100506.03;4974753;28;45460;-63
2022/10/20 05:40:18;;;;;;;;;5.25;5.25;;;;;18.46;78.82;100517.75;4929255;28;45736;-64
2022/10/20 05:42:44;;;;;;;;;8.25;6.75;;;;;18.49;78.43;100517.19;4970850;28;45395;-61
2022/10/20 05:45:10;;;;;;;;;11.50;9.50;;;;;18.46;78.62;100499.09;4976085;28;45445;-62
2022/10/20 05:47:35;;;;;;;;;6.50;6.50;;;;;18.46;78.50;100503.84;4975537;28;45565;-63
2022/10/20 05:50:01;;;;;;;;;5.00;5.00;;;;;18.26;77.92;100467.34;4973879;28;45439;-62
2022/10/20 05:52:26;;;;;;;;;9.00;7.75;;;;;18.42;77.82;100490.47;4974382;28;45467;-64
2022/10/20 05:54:52;;;;;;;;;8.00;8.00;;;;;18.41;77.85;100490.78;4974422;28;45502;-65
2022/10/20 05:57:17;;;;;;;;;8.25;8.25;;;;;18.36;77.50;100491.56;4975696;28;46379;-63
2022/10/20 05:59:43;;;;;;;;;6.25;4.50;;;;;18.37;77.75;100489.63;4957783;28;45411;-62
2022/10/20 06:02:14;;;;;;;;;5.00;2.00;;;;;18.32;77.65;100476.56;4974498;28;45412;-65
2022/10/20 06:04:39;;;;;;;;;6.00;6.00;;;;;18.30;78.05;100464.88;4974438;28;45425;-65
2022/10/20 06:07:05;;;;;;;;;8.00;5.50;;;;;18.21;77.76;100453.47;4974980;28;45383;-62
2022/10/20 06:09:31;;;;;;;;;10.00;7.75;;;;;18.22;77.66;100441.25;4975508;28;45671;-63
2022/10/20 06:11:57;;;;;;;;;9.00;5.25;;;;;18.22;78.08;100410.69;4974658;28;45421;-63
2022/10/20 06:14:24;;;;;;;;;5.60;5.60;;;;;18.24;77.96;100394.56;4973991;28;45335;-63
2022/10/20 06:16:51;;;;;;;;;7.60;6.60;;;;;18.22;78.20;100377.34;4974940;28;46651;-63
2022/10/20 06:19:16;;;;;;;;;5.20;3.80;;;;;18.24;77.77;100380.69;4957832;28;45348;-63
2022/10/20 06:21:42;;;;;;;;;8.00;7.00;;;;;18.20;77.73;100374.00;4974869;28;45289;-63
2022/10/20 06:24:08;;;;;;;;;8.50;7.25;;;;;18.20;77.65;100368.44;4975525;28;45457;-62
2022/10/20 06:26:37;;;;;;;;;7.00;7.00;;;;;18.18;77.90;100361.50;4974986;28;46197;-64
2022/10/20 06:29:04;;;;;;;;;11.00;8.60;;;;;18.13;77.91;100353.97;4975079;28;45463;-64
2022/10/20 06:31:40;;;;;;;;;10.20;7.60;;;;;18.12;77.82;100352.31;4973647;28;45445;-64
2022/10/20 06:34:07;;;;;;;;;11.80;10.00;;;;;18.12;77.86;100360.66;4958292;28;45343;-64
2022/10/20 06:36:36;;;;;;;;;10.60;9.20;;;;;18.08;77.96;100351.22;4957551;28;45493;-64
2022/10/20 06:39:03;;;;;;;;;7.00;7.00;;;;;18.13;78.31;100362.31;4973601;28;45436;-64
2022/10/20 06:41:28;;;;;;;;;10.40;9.00;;;;;18.11;78.25;100357.06;4974888;28;45311;-64
2022/10/20 06:43:57;;;;;;;;;9.75;8.00;;;;;18.11;78.36;100361.75;4975246;28;45343;-64
2022/10/20 06:46:23;;;;;;;;;7.80;7.80;;;;;18.05;78.63;100368.38;4957458;28;45501;-64
2022/10/20 06:48:49;;;;;;;;;6.60;5.80;;;;;18.00;78.42;100378.34;4989901;28;45484;-64
2022/10/20 06:51:17;;;;;;;;;10.00;8.75;;;;;17.98;78.46;100400.00;4974774;28;45461;-64
2022/10/20 06:53:43;;;;;;;;;9.20;8.00;;;;;17.95;78.42;100414.44;4974313;28;45636;-63
2022/10/20 06:56:13;;;;;;;;;7.00;4.00;;;;;17.94;78.54;100412.75;4974447;28;46132;-64
2022/10/20 06:58:40;;;;;;;;;7.80;7.00;;;;;17.99;78.16;100432.19;4973308;28;45355;-63
2022/10/20 07:01:07;;;;;;;;;9.80;7.20;;;;;17.79;78.32;100407.09;4974857;28;45501;-63
2022/10/20 07:03:33;;;;;;;;;8.40;7.20;;;;;17.95;77.80;100444.13;4990015;28;45551;-64
2022/10/20 07:05:59;;;;;;;;;7.80;7.40;;;;;18.07;78.12;100463.34;4974546;28;45435;-65
2022/10/20 07:08:29;;;;;;;;;7.25;7.00;;;;;18.05;77.98;100473.88;4973499;28;45186;-64
2022/10/20 07:11:02;;;;;;;;;7.40;7.20;;;;;17.81;77.98;100438.19;4974873;28;45900;-63
2022/10/20 07:13:28;;;;;;;;;7.00;6.00;;;;;18.00;77.87;100478.28;4957441;28;45398;-66
2022/10/20 07:15:54;;;;;;;;;8.25;7.25;;;;;17.62;77.69;100416.44;4957176;28;45576;-63
2022/10/20 07:18:20;;;;;;;;;6.80;6.20;;;;;18.03;77.91;100485.25;4921307;28;45725;-62
2022/10/20 07:20:45;;;;;;;;;9.00;9.00;;;;;17.66;77.90;100427.84;4955214;28;45406;-63
2022/10/20 07:23:11;;;;;;;;;5.50;5.25;;;;;18.01;77.57;100490.25;4957086;28;45350;-63
2022/10/20 07:25:36;;;;;;;;;6.00;4.25;;;;;17.94;77.85;100481.31;4933610;28;46316;-64
2022/10/20 07:28:02;;;;;;;;;3.00;3.00;;;;;17.99;78.00;100493.28;4972665;28;45465;-62
2022/10/20 07:30:27;;;;;;;;;6.00;6.00;;;;;17.98;77.86;100499.94;4977864;28;45482;-62
2022/10/20 07:32:53;;;;;;;;;10.75;9.00;;;;;17.92;77.76;100489.91;4978044;28;45504;-62
2022/10/20 07:35:18;;;;;;;;;11.00;8.75;;;;;17.91;77.79;100485.47;4977705;28;45686;-63
2022/10/20 07:37:44;;;;;;;;;8.75;8.00;;;;;17.77;77.90;100467.59;4976204;28;45333;-64
2022/10/20 07:40:10;;;;;;;;;8.00;7.00;;;;;17.97;77.88;100492.72;4977968;28;45435;-62
2022/10/20 07:42:35;;;;;;;;;10.60;9.40;;;;;17.93;78.04;100499.91;4976680;28;45569;-63
2022/10/20 07:45:04;;;;;;;;;7.50;7.25;;;;;17.86;77.72;100489.03;4976153;28;48246;-60
2022/10/20 07:47:29;;;;;;;;;9.00;8.20;;;;;17.11;77.79;100370.59;4977624;28;45826;-62
2022/10/20 07:49:55;;;;;;;;;6.50;5.50;;;;;17.84;78.18;100485.72;4977550;28;45415;-61
2022/10/20 07:52:20;;;;;;;;;7.50;6.00;;;;;17.87;77.99;100487.94;4976323;28;45872;-63
2022/10/20 07:54:46;;;;;;;;;8.75;7.50;;;;;17.83;78.06;100492.34;4977565;28;46431;-61
2022/10/20 07:57:12;;;;;;;;;12.00;8.00;;;;;17.42;78.34;100429.06;4977569;28;45437;-60
2022/10/20 07:59:37;;;;;;;;;9.25;6.00;;;;;17.73;78.45;100475.63;4976569;28;45313;-61
2022/10/20 08:02:03;;;;;;;;;6.75;6.50;;;;;17.84;78.47;100494.03;4943946;28;45590;-62
2022/10/20 08:04:30;;;;;;;;;5.75;5.75;;;;;17.58;78.47;100443.91;4977350;28;46422;-60
2022/10/20 08:06:56;;;;;;;;;8.40;6.40;;;;;17.75;78.45;100462.31;4975866;28;45356;-62
2022/10/20 08:09:22;;;;;;;;;11.00;7.60;;;;;17.94;78.05;100484.09;4975914;28;45376;-63
2022/10/20 08:11:48;;;;;;;;;7.00;7.00;;;;;17.97;78.47;100484.38;4976215;28;45586;-64
2022/10/20 08:14:16;;;;;;;;;7.25;7.25;;;;;18.02;78.00;100489.13;4977009;28;46362;-63
2022/10/20 08:16:41;;;;;;;;;8.00;7.00;;;;;17.95;78.04;100461.63;4975386;28;45377;-62
2022/10/20 08:19:07;;;;;;;;;10.25;7.00;;;;;18.11;77.56;100475.63;4975571;28;45416;-62
2022/10/20 08:21:33;;;;;;;;;9.00;6.00;;;;;18.09;77.68;100464.75;4977483;28;45434;-63
2022/10/20 08:23:58;;;;;;;;;3.00;2.00;;;;;18.06;77.17;100467.25;4975807;28;46543;-62
2022/10/20 08:26:25;;;;;;;;;5.75;5.75;;;;;18.14;77.25;100484.25;4976842;28;45822;-62
2022/10/20 08:28:52;;;;;;;;;8.00;6.00;;;;;18.06;77.18;100464.47;4946100;28;45835;-63
2022/10/20 08:31:17;;;;;;;;;7.60;7.60;;;;;18.21;76.83;100489.56;4975587;28;45594;-62
2022/10/20 08:33:43;;;;;;;;;7.50;7.50;;;;;18.01;76.74;100451.38;4957989;28;45479;-63
2022/10/20 08:36:11;;;;;;;;;9.50;8.00;;;;;18.27;76.82;100498.75;4975443;28;45453;-63
2022/10/20 08:38:36;;;;;;;;;5.60;5.00;;;;;18.25;76.79;100485.13;4975341;28;45433;-63
2022/10/20 08:41:04;;;;;;;;;4.00;4.00;;;;;18.27;76.04;100485.72;4976290;28;45511;-63
2022/10/20 08:43:30;;;;;;;;;4.40;4.40;;;;;18.25;76.46;100485.13;4975242;28;46246;-62
2022/10/20 08:45:55;;;;;;;;;7.20;4.00;;;;;18.29;76.26;100500.16;4959500;28;45366;-64
2022/10/20 08:48:26;;;;;;;;;5.00;5.00;;;;;18.33;76.01;100506.00;4975094;28;45238;-66
2022/10/20 08:50:51;;;;;;;;;8.20;8.00;;;;;18.33;75.93;100503.22;4959857;28;45396;-60
2022/10/20 08:53:21;;;;;;;;;5.75;5.75;;;;;18.36;76.12;100502.66;4976331;28;46211;-61
2022/10/20 08:55:47;;;;;;;;;4.80;4.80;;;;;18.21;76.10;100466.50;4974165;28;45559;-62
2022/10/20 08:58:14;;;;;;;;;3.50;3.50;;;;;18.36;75.36;100482.41;4975134;28;45434;-61
2022/10/20 09:00:40;;;;;;;;;5.20;4.80;;;;;18.47;75.32;100497.19;4975057;28;45406;-62
2022/10/20 09:03:16;;;;;;;;;4.50;3.50;;;;;18.51;75.64;100498.31;4974424;28;47383;-61
2022/10/20 09:05:44;;;;;;;;;5.40;5.40;;;;;18.49;75.30;100503.28;4959599;28;45383;-62
2022/10/20 09:08:09;;;;;;;;;3.80;3.00;;;;;18.38;75.51;100485.75;4974986;28;45192;-60
2022/10/20 09:10:36;;;;;;;;;4.00;4.00;;;;;18.37;75.71;100496.00;4958941;28;45513;-61
2022/10/20 09:13:05;;;;;;;;;5.60;4.00;;;;;18.32;75.78;100492.38;4958278;28;46249;-61
2022/10/20 09:15:31;;;;;;;;;5.00;4.20;;;;;18.33;76.12;100502.38;4974678;28;45453;-61
2022/10/20 09:18:02;;;;;;;;;5.25;4.00;;;;;18.31;76.38;100494.34;4974937;28;45426;-65
2022/10/20 09:20:33;;;;;;;;;4.00;4.00;;;;;18.33;76.33;100494.03;4975086;28;45611;-67
2022/10/20 09:22:59;;;;;;;;;5.80;4.80;;;;;18.38;76.17;100494.06;4958199;28;46859;-60
2022/10/20 09:25:26;;;;;;;;;4.75;3.00;;;;;17.80;76.40;100408.78;4975144;28;45356;-59
2022/10/20 09:27:52;;;;;;;;;6.80;4.00;;;;;18.39;76.07;100498.53;4968619;28;45340;-62
2022/10/20 09:30:24;;;;;;;;;5.00;3.00;;;;;18.38;75.22;100486.59;4952674;28;45893;-65
2022/10/20 09:32:50;;;;;;;;;4.80;3.00;;;;;18.22;75.22;100455.13;4974643;28;45736;-61
2022/10/20 09:35:26;;;;;;;;;3.00;3.00;;;;;18.44;75.57;100481.88;4974748;28;45557;-62
2022/10/20 09:37:56;;;;;;;;;3.80;3.00;;;;;18.49;75.73;100487.47;4975956;28;45363;-64
2022/10/20 09:40:21;;;;;;;;;4.00;4.00;;;;;18.43;75.16;100467.13;4976128;28;45402;-67
2022/10/20 09:43:05;;;;;;;;;3.75;3.75;;;;;18.40;75.30;100456.59;4958404;28;45690;-62
2022/10/20 09:45:31;;;;;;;;;4.80;3.00;;;;;18.54;74.76;100469.97;4974995;28;45405;-62
2022/10/20 09:48:07;;;;;;;;;5.25;3.75;;;;;18.38;74.64;100442.13;4958597;28;45860;-62
2022/10/20 09:50:35;;;;;;;;;4.00;2.60;;;;;18.67;74.17;100482.50;4975071;28;45644;-61
2022/10/20 09:53:01;;;;;;;;;3.00;1.40;;;;;18.69;73.58;100486.69;4957943;28;45827;-61
2022/10/20 09:55:34;;;;;;;;;3.00;3.00;;;;;18.75;73.03;100479.22;4974274;28;45446;-62
2022/10/20 09:58:00;;;;;;;;;3.00;3.00;;;;;18.80;73.54;100484.78;4942248;28;45324;-62
2022/10/20 10:00:29;;;;;;;;;3.20;3.00;;;;;18.89;73.26;100481.47;4974733;28;45614;-62
2022/10/20 10:03:20;;;;;;;;;3.80;3.80;;;;;19.08;72.31;100482.66;4975411;28;45411;-62
2022/10/20 10:05:56;;;;;;;;;6.40;3.00;;;;;19.29;71.72;100487.41;4974817;28;45402;-62
2022/10/20 10:08:23;;;;;;;;;3.40;3.40;;;;;19.46;71.58;100476.00;4973992;28;45268;-61
2022/10/20 10:11:05;;;;;;;;;5.00;3.40;;;;;19.66;70.57;100472.38;4974906;28;45424;-61
2022/10/20 10:13:36;;;;;;;;;4.00;4.00;;;;;19.85;69.38;100478.19;4958386;28;46802;-62
2022/10/20 10:16:06;;;;;;;;;5.20;3.40;;;;;19.88;69.24;100435.88;4954303;28;45433;-62
2022/10/20 10:18:32;;;;;;;;;4.80;3.40;;;;;20.06;68.75;100460.63;4955859;28;45666;-62
2022/10/20 10:21:10;;;;;;;;;1.50;1.50;;;;;20.13;67.85;100475.09;4956584;28;45331;-62
2022/10/20 10:24:05;;;;;;;;;3.80;3.20;;;;;20.15;67.80;100472.84;4939796;28;46324;-61
2022/10/20 10:26:44;;;;;;;;;5.40;3.80;;;;;20.07;66.88;100462.28;4955278;28;45481;-61
2022/10/20 10:29:22;;;;;;;;;6.00;3.80;;;;;20.02;66.80;100463.97;4954631;28;45516;-61
2022/10/20 10:32:13;;;;;;;;;3.80;2.80;;;;;19.97;67.51;100457.59;4954637;28;45563;-61
2022/10/20 10:34:58;;;;;;;;;1.80;1.80;;;;;19.97;67.57;100444.50;4953956;28;46138;-62
2022/10/20 10:37:24;;;;;;;;;3.00;1.80;;;;;20.03;67.04;100456.47;4955806;28;45296;-61
2022/10/20 10:39:49;;;;;;;;;3.00;2.00;;;;;19.80;66.80;100424.47;4955475;28;45334;-61
2022/10/20 10:42:30;;;;;;;;;4.25;2.75;;;;;19.86;66.71;100432.50;4955823;28;45258;-61
2022/10/20 10:45:10;;;;;;;;;2.00;2.00;;;;;19.91;66.23;100431.69;4955619;28;46735;-62
2022/10/20 10:47:45;;;;;;;;;2.60;2.60;;;;;20.06;64.53;100453.09;4939576;28;45351;-61
2022/10/20 10:50:20;;;;;;;;;3.00;2.00;;;;;20.20;65.51;100441.34;4954400;28;45478;-61
2022/10/20 10:52:49;;;;;;;;;2.80;1.60;;;;;20.40;64.67;100399.47;4954546;28;45424;-61
2022/10/20 10:55:16;;;;;;;;;1.60;1.40;;;;;20.86;63.53;100417.06;4953883;28;45592;-61
2022/10/20 10:57:53;;;;;;;;;4.00;3.00;;;;;21.52;62.39;100422.41;4954988;28;45422;-61
2022/10/20 11:00:27;;;;;;;;;3.40;2.80;;;;;21.73;61.43;100425.84;4958657;28;45435;-61
2022/10/20 11:03:00;;;;;;;;;2.20;1.80;;;;;21.83;59.87;100430.50;4942768;28;45310;-61
2022/10/20 11:05:59;;;;;;;;;1.80;1.00;;;;;22.21;59.95;100430.59;4958643;28;46301;-62
2022/10/20 11:08:33;;;;;;;;;2.80;2.80;;;;;24.87;53.27;100421.25;4958538;28;45152;-63
2022/10/20 11:11:02;;;;;;;;;1.00;1.00;;;;;27.64;46.30;100379.97;4957554;28;45314;-62
2022/10/20 11:13:42;;;;;;;;;2.00;2.00;;;;;26.76;46.53;100409.06;4957623;28;45189;-62
2022/10/20 11:16:31;;;;;;;;;2.00;2.00;;;;;27.85;44.73;100294.66;5004596;28;45868;-62
2022/10/20 11:19:11;;;;;;;;;3.00;3.00;;;;;31.55;38.18;100393.00;4960456;28;45386;-61
2022/10/20 11:21:53;;;;;;;;;2.00;2.00;;;;;33.16;34.79;100356.53;4978130;28;45366;-62
2022/10/20 11:24:24;;;;;;;;;1.60;1.00;;;;;34.82;31.83;100393.75;4978047;28;45861;-62
2022/10/20 11:27:00;;;;;;;;;3.20;2.00;;;;;32.57;34.39;100388.63;4976350;28;45949;-62
2022/10/20 11:29:36;;;;;;;;;1.80;1.00;;;;;30.06;38.45;100386.59;4976519;28;45406;-62